Time;durP1;ratioP1;P1;durP2;ratioP2;P2;SDS_P1;SDS_P2;PMS_P1;PMS_P2;Temp;Humidity;BMP_temperature;BMP_pressure;BME280_temperature;BME280_humidity;BME280_pressure;Samples;Min_cycle;Max_cycle;Signal;HPM_P1;HPM_P2
2023/09/20 12:04:30;;;;;;;2.55;1.27;;;;;;;16.86;75.18;99645.97;10523686;27;3897784;-89
2023/09/20 12:09:34;;;;;;;1.08;0.95;;;;;;;16.83;74.98;99624.50;10596281;28;20039;-87
2023/09/20 12:14:40;;;;;;;2.08;1.35;;;;;;;16.86;75.42;99636.84;10615088;27;20046;-89
2023/09/20 12:19:43;;;;;;;1.73;1.05;;;;;;;16.78;75.35;99651.59;10611387;28;20051;-88
2023/09/20 12:24:45;;;;;;;2.97;1.38;;;;;;;16.82;75.21;99635.88;10630408;28;20027;-88
2023/09/20 12:29:49;;;;;;;2.88;1.50;;;;;;;16.78;75.85;99649.63;10606905;28;20043;-90
2023/09/20 12:35:00;;;;;;;4.97;1.13;;;;;;;16.59;77.78;99660.44;10582081;28;20043;-91
2023/09/20 12:40:10;;;;;;;3.35;1.50;;;;;;;16.45;79.53;99663.53;10595614;28;20039;-91
2023/09/20 12:45:24;;;;;;;3.17;2.58;;;;;;;16.20;81.17;99654.41;10585484;28;20051;-90
2023/09/20 12:50:37;;;;;;;3.45;1.25;;;;;;;15.92;83.26;99651.44;10590219;27;20541;-90
2023/09/20 12:55:48;;;;;;;2.60;1.23;;;;;;;15.75;85.07;99654.38;10607892;28;20042;-92
2023/09/20 13:01:01;;;;;;;1.88;1.25;;;;;;;15.69;85.98;99669.56;10612715;28;20417;-92
2023/09/20 13:06:03;;;;;;;6.35;1.48;;;;;;;15.64;86.59;99658.72;10585845;28;20075;-90
2023/09/20 13:11:23;;;;;;;11.65;2.83;;;;;;;15.63;87.11;99666.19;10578782;28;20056;-90
2023/09/20 13:16:34;;;;;;;2.60;1.70;;;;;;;15.60;87.03;99675.16;10558186;28;20040;-87
2023/09/20 13:21:39;;;;;;;2.70;1.40;;;;;;;15.61;87.48;99676.75;10616446;28;20039;-85
2023/09/20 13:26:49;;;;;;;5.03;1.55;;;;;;;15.52;88.37;99672.44;10601214;28;20066;-85
2023/09/20 13:31:52;;;;;;;3.15;1.50;;;;;;;15.55;88.38;99672.56;10605137;28;20043;-88
2023/09/20 13:36:56;;;;;;;5.10;1.70;;;;;;;15.47;88.49;99665.16;10592154;28;20066;-88
2023/09/20 13:41:59;;;;;;;5.20;1.88;;;;;;;15.51;89.00;99681.88;10572028;28;20043;-88
2023/09/20 13:47:06;;;;;;;4.68;1.85;;;;;;;15.49;88.84;99673.94;10596266;28;20036;-85
2023/09/20 13:52:10;;;;;;;;;;;;;;;15.49;89.17;99681.41;10599106;28;20392;-87
2023/09/20 13:57:16;;;;;;;3.78;1.42;;;;;;;15.51;89.21;99679.94;10580726;28;19928;-88
2023/09/20 14:02:19;;;;;;;3.80;1.70;;;;;;;15.48;89.82;99691.66;10592984;28;20051;-87
2023/09/20 14:07:21;;;;;;;2.40;1.48;;;;;;;15.38;90.39;99694.81;10547638;28;20071;-87
2023/09/20 14:12:23;;;;;;;3.33;1.40;;;;;;;15.32;91.82;99683.16;10580087;28;20044;-88
2023/09/20 14:17:25;;;;;;;2.80;1.60;;;;;;;15.27;92.68;99677.84;10574402;28;20533;-87
2023/09/20 14:22:28;;;;;;;3.55;1.50;;;;;;;15.20;94.33;99699.66;10587011;27;20054;-87
2023/09/20 14:27:35;;;;;;;2.42;1.58;;;;;;;15.19;94.44;99692.50;10576843;28;20044;-88
2023/09/20 14:32:38;;;;;;;2.58;1.60;;;;;;;15.18;94.43;99707.47;10559743;28;20028;-89
2023/09/20 14:37:49;;;;;;;3.00;1.65;;;;;;;15.13;96.08;99704.91;10581313;28;21418;-88
2023/09/20 14:42:58;;;;;;;2.10;1.27;;;;;;;15.20;95.36;99705.19;10558739;28;20044;-87
2023/09/20 14:48:04;;;;;;;5.47;1.73;;;;;;;15.13;96.13;99699.38;10575564;28;20047;-90
2023/09/20 14:53:06;;;;;;;2.05;1.20;;;;;;;15.12;96.11;99706.06;10554966;28;20063;-89
2023/09/20 14:58:10;;;;;;;3.42;1.48;;;;;;;15.17;96.61;99711.38;10560400;28;20121;-91
2023/09/20 15:03:14;;;;;;;4.03;1.65;;;;;;;15.13;96.83;99699.38;10539244;28;20052;-82
2023/09/20 15:08:20;;;;;;;3.78;1.55;;;;;;;15.14;97.03;99709.28;10586420;28;20045;-87
2023/09/20 15:13:22;;;;;;;2.57;1.50;;;;;;;15.24;96.80;99719.94;10566045;28;20035;-86
2023/09/20 15:18:25;;;;;;;3.15;2.03;;;;;;;15.23;96.54;99732.16;10561309;28;20040;-87
2023/09/20 15:23:52;;;;;;;3.80;1.60;;;;;;;15.24;96.23;99744.81;10582736;28;20036;-91
2023/09/20 15:29:00;;;;;;;2.83;1.23;;;;;;;15.23;96.42;99758.97;10552842;27;20067;-88
2023/09/20 15:34:03;;;;;;;3.90;1.73;;;;;;;15.13;98.36;99749.13;10575589;28;20032;-91
2023/09/20 15:39:05;;;;;;;3.72;1.40;;;;;;;15.05;99.63;99780.34;10565163;28;20031;-82
2023/09/20 15:44:08;;;;;;;2.08;1.77;;;;;;;14.94;100.00;99768.06;10622225;28;20043;-85
2023/09/20 15:49:13;;;;;;;1.70;1.40;;;;;;;14.96;100.00;99783.16;10636490;28;20125;-90
2023/09/20 15:54:22;;;;;;;3.75;1.27;;;;;;;14.94;100.00;99770.84;10570160;28;20031;-89
2023/09/20 15:59:25;;;;;;;2.10;1.50;;;;;;;14.99;100.00;99792.75;10574869;28;20035;-88
2023/09/20 16:04:27;;;;;;;2.75;1.50;;;;;;;15.00;100.00;99789.66;10589352;28;20052;-89
2023/09/20 16:09:30;;;;;;;3.10;1.50;;;;;;;14.94;100.00;99785.47;10576058;28;20452;-84
2023/09/20 16:14:35;;;;;;;2.47;1.55;;;;;;;14.94;100.00;99793.75;10607408;28;20041;-86
2023/09/20 16:19:40;;;;;;;2.17;1.60;;;;;;;14.99;100.00;99798.28;10606855;28;20425;-86
2023/09/20 16:24:43;;;;;;;3.05;1.40;;;;;;;15.01;100.00;99804.28;10605365;28;20406;-88
2023/09/20 16:29:52;;;;;;;3.15;1.67;;;;;;;15.12;100.00;99811.06;10585480;28;20040;-85
2023/09/20 16:34:57;;;;;;;2.92;1.50;;;;;;;15.24;100.00;99802.84;10611290;28;20405;-86
2023/09/20 16:40:00;;;;;;;2.40;1.30;;;;;;;15.29;100.00;99818.47;10611123;28;20046;-85
2023/09/20 16:45:04;;;;;;;4.97;1.83;;;;;;;15.34;99.85;99812.75;10578255;28;20039;-86
2023/09/20 16:50:29;;;;;;;2.42;1.50;;;;;;;15.39;99.23;99807.81;10602731;28;20510;-87
2023/09/20 16:55:34;;;;;;;7.63;2.80;;;;;;;15.68;97.42;99812.56;10604181;28;20031;-85
2023/09/20 17:00:37;;;;;;;6.72;3.88;;;;;;;15.67;96.95;99821.22;10588807;28;20040;-85
2023/09/20 17:05:41;;;;;;;3.63;2.13;;;;;;;15.78;96.59;99827.13;10571803;28;20164;-85
2023/09/20 17:10:43;;;;;;;5.03;2.88;;;;;;;15.67;96.46;99826.75;10597093;28;20101;-84
2023/09/20 17:15:46;;;;;;;2.55;1.40;;;;;;;15.59;97.47;99846.94;10617794;28;20032;-84
2023/09/20 17:20:48;;;;;;;2.38;1.40;;;;;;;15.55;97.20;99845.97;10599604;28;20036;-84
2023/09/20 17:25:50;;;;;;;2.25;1.38;;;;;;;15.50;98.24;99851.69;10604995;28;20417;-88
2023/09/20 17:31:00;;;;;;;2.42;1.60;;;;;;;15.41;99.87;99893.19;10571900;28;20032;-89
2023/09/20 17:36:04;;;;;;;1.48;1.10;;;;;;;15.17;100.00;99888.25;10577359;28;20506;-85
2023/09/20 17:41:08;;;;;;;0.75;0.57;;;;;;;15.06;100.00;99838.03;10589580;28;20055;-87
2023/09/20 17:46:13;;;;;;;2.10;1.25;;;;;;;15.08;100.00;99896.56;10630601;28;20027;-87
2023/09/20 17:51:17;;;;;;;3.13;1.67;;;;;;;15.09;100.00;99905.66;10614053;28;20103;-87
2023/09/20 17:56:19;;;;;;;4.53;3.38;;;;;;;15.08;100.00;99918.66;10593036;28;20444;-88
2023/09/20 18:01:22;;;;;;;6.57;3.55;;;;;;;15.05;100.00;99908.25;10554408;28;20055;-84
2023/09/20 18:06:24;;;;;;;2.55;2.08;;;;;;;14.94;100.00;99922.78;10617998;28;20079;-85
2023/09/20 18:11:27;;;;;;;2.40;1.83;;;;;;;14.94;100.00;99922.78;10617131;28;20032;-84
2023/09/20 18:16:29;;;;;;;3.60;1.90;;;;;;;14.91;100.00;99931.69;10628091;28;20063;-84
2023/09/20 18:21:35;;;;;;;2.08;1.67;;;;;;;14.89;100.00;99947.78;10603745;28;20039;-86
2023/09/20 18:26:37;;;;;;;2.40;1.80;;;;;;;14.91;100.00;99946.31;10588066;28;20070;-87
2023/09/20 18:31:43;;;;;;;3.00;1.60;;;;;;;14.94;100.00;99955.94;10616388;28;20039;-89
2023/09/20 18:36:46;;;;;;;2.80;1.40;;;;;;;14.87;100.00;99963.88;10556047;28;20044;-89
2023/09/20 18:41:49;;;;;;;1.55;1.20;;;;;;;14.82;100.00;99967.63;10571482;28;20115;-88
2023/09/20 18:46:55;;;;;;;6.75;2.90;;;;;;;14.94;100.00;99962.25;10572236;28;20036;-88
2023/09/20 18:51:57;;;;;;;9.50;3.88;;;;;;;15.01;100.00;99968.09;10600028;28;20059;-87
2023/09/20 18:57:03;;;;;;;2.08;1.40;;;;;;;14.94;100.00;99978.03;10587254;28;20036;-91
2023/09/20 19:02:13;;;;;;;2.60;1.83;;;;;;;14.98;100.00;99973.47;10562737;28;20051;-90
2023/09/20 19:07:16;;;;;;;2.40;1.65;;;;;;;14.97;100.00;99971.84;10585969;28;20571;-91
2023/09/20 19:12:22;;;;;;;3.13;1.63;;;;;;;15.05;100.00;99973.78;10577297;28;20729;-91
2023/09/20 19:17:32;;;;;;;4.50;2.30;;;;;;;15.14;100.00;99982.06;10565547;28;20092;-89
2023/09/20 19:22:35;;;;;;;4.72;1.70;;;;;;;15.04;100.00;99986.78;10557569;28;20050;-92
2023/09/20 19:27:39;;;;;;;3.25;1.48;;;;;;;15.06;100.00;99991.97;10576716;28;20039;-95
2023/09/20 19:33:28;;;;;;;;;;;;;;;;;;;;;
2023/09/20 19:38:28;;;;;;;1.40;1.30;;;;;;;15.01;100.00;100017.81;10575651;28;20158;-95
2023/09/20 19:43:37;;;;;;;1.95;1.48;;;;;;;15.05;100.00;100012.44;10599540;28;20059;-94
2023/09/20 19:48:47;;;;;;;2.30;1.50;;;;;;;15.03;100.00;100018.31;10585864;28;20093;-94
2023/09/20 19:53:54;;;;;;;2.05;1.00;;;;;;;15.06;100.00;100025.13;10571593;28;20379;-94
2023/09/20 19:58:58;;;;;;;3.83;1.40;;;;;;;15.04;100.00;100027.41;10552115;28;20028;-93
2023/09/20 20:04:01;;;;;;;1.88;1.10;;;;;;;15.14;100.00;100038.16;10556286;28;20514;-94
2023/09/20 20:09:07;;;;;;;1.75;1.48;;;;;;;15.12;100.00;100034.91;10577166;28;20043;-88
2023/09/20 20:14:09;;;;;;;1.45;1.20;;;;;;;15.18;100.00;100033.59;10594779;28;20040;-87
2023/09/20 20:19:15;;;;;;;1.45;1.17;;;;;;;15.20;100.00;100038.78;10604950;28;20050;-87
2023/09/20 20:24:18;;;;;;;2.63;1.50;;;;;;;15.27;100.00;100039.94;10608346;28;20047;-86
2023/09/20 20:29:20;;;;;;;1.60;1.27;;;;;;;15.23;100.00;100050.00;10607108;28;20038;-84
2023/09/20 20:34:22;;;;;;;1.42;1.33;;;;;;;15.23;100.00;100052.75;10583642;28;20043;-84
2023/09/20 20:39:28;;;;;;;1.55;1.30;;;;;;;15.31;100.00;100065.78;10596295;28;20039;-90
2023/09/20 20:44:34;;;;;;;1.85;1.48;;;;;;;15.37;100.00;100069.97;10554898;27;20042;-93
2023/09/20 20:49:38;;;;;;;1.50;1.40;;;;;;;15.38;100.00;100079.09;10579203;28;20031;-87
2023/09/20 20:54:41;;;;;;;2.30;1.63;;;;;;;15.46;100.00;100078.28;10620237;27;20047;-88
2023/09/20 20:59:44;;;;;;;1.55;1.45;;;;;;;15.44;100.00;100090.78;10577891;27;20044;-90
2023/09/20 21:04:46;;;;;;;2.65;2.10;;;;;;;15.39;100.00;100102.81;10541198;28;20056;-89
2023/09/20 21:09:53;;;;;;;1.83;1.73;;;;;;;15.38;100.00;100102.03;10607200;28;20604;-89
2023/09/20 21:14:56;;;;;;;1.70;1.40;;;;;;;15.37;100.00;100105.91;10624219;28;20541;-90
2023/09/20 21:20:04;;;;;;;3.03;1.90;;;;;;;15.39;100.00;100116.66;10572671;28;20035;-91
2023/09/20 21:25:11;;;;;;;2.10;1.48;;;;;;;15.45;100.00;100122.84;10592711;28;20151;-92
2023/09/20 21:30:16;;;;;;;1.85;1.70;;;;;;;15.53;100.00;100133.06;10535769;27;20032;-92
2023/09/20 21:35:22;;;;;;;1.98;1.40;;;;;;;15.52;100.00;100142.50;10590559;28;20142;-90
2023/09/20 21:40:29;;;;;;;1.70;1.50;;;;;;;15.47;100.00;100134.41;10548575;28;20043;-90
2023/09/20 21:45:32;;;;;;;2.38;1.55;;;;;;;15.42;100.00;100148.34;10582179;28;20044;-91
2023/09/20 21:50:34;;;;;;;1.60;1.35;;;;;;;15.42;100.00;100156.66;10591171;28;20498;-89
2023/09/20 21:55:39;;;;;;;3.15;1.60;;;;;;;15.34;100.00;100152.75;10546514;28;20066;-90
2023/09/20 22:00:42;;;;;;;2.15;1.45;;;;;;;15.46;100.00;100164.00;10583343;28;20054;-91
2023/09/20 22:05:44;;;;;;;1.98;1.70;;;;;;;15.41;100.00;100160.56;10549232;28;20046;-90
2023/09/20 22:10:52;;;;;;;1.77;1.40;;;;;;;15.45;100.00;100167.09;10577514;28;20046;-91
2023/09/20 22:15:54;;;;;;;2.03;1.55;;;;;;;15.39;100.00;100185.78;10554054;27;20038;-89
2023/09/20 22:21:07;;;;;;;3.20;1.92;;;;;;;15.50;100.00;100189.03;10579391;27;20042;-90
2023/09/20 22:26:11;;;;;;;1.75;1.63;;;;;;;15.41;100.00;100199.25;10543087;28;20072;-91
2023/09/20 22:31:18;;;;;;;1.40;1.30;;;;;;;15.60;100.00;100208.09;10569974;27;20048;-90
2023/09/20 22:36:21;;;;;;;1.27;1.17;;;;;;;15.52;100.00;100214.41;10575043;27;20044;-89
2023/09/20 22:41:24;;;;;;;3.15;1.33;;;;;;;15.61;100.00;100218.00;10601046;27;20046;-91
2023/09/20 22:46:27;;;;;;;3.22;1.60;;;;;;;15.65;100.00;100221.78;10613599;27;20068;-89
2023/09/20 22:51:30;;;;;;;1.30;1.20;;;;;;;15.50;100.00;100225.81;10564361;28;20043;-91
2023/09/20 22:56:44;;;;;;;1.55;1.05;;;;;;;15.52;100.00;100240.13;10591706;28;20086;-90
2023/09/20 23:01:48;;;;;;;1.30;1.20;;;;;;;15.44;100.00;100238.13;10582521;28;20058;-90
2023/09/20 23:06:52;;;;;;;2.03;1.13;;;;;;;15.43;100.00;100241.22;10581975;28;20037;-89
2023/09/20 23:11:54;;;;;;;2.00;1.40;;;;;;;15.52;100.00;100242.06;10582764;27;20044;-90
2023/09/20 23:17:01;;;;;;;1.30;1.20;;;;;;;15.49;100.00;100245.47;10575790;28;20043;-88
2023/09/20 23:22:11;;;;;;;1.25;1.08;;;;;;;15.48;100.00;100252.16;10551905;28;20074;-90
2023/09/20 23:27:16;;;;;;;1.30;1.05;;;;;;;15.52;100.00;100258.66;10548489;28;20096;-90
2023/09/20 23:32:22;;;;;;;1.23;1.13;;;;;;;15.56;100.00;100265.97;10555844;28;20039;-92
2023/09/20 23:37:25;;;;;;;1.10;1.00;;;;;;;15.64;100.00;100264.41;10536305;28;20516;-92
2023/09/20 23:42:28;;;;;;;2.40;1.33;;;;;;;15.53;100.00;100268.59;10558691;28;20031;-92
2023/09/20 23:47:33;;;;;;;3.30;1.30;;;;;;;15.46;100.00;100282.91;10546393;28;20499;-89
2023/09/20 23:52:36;;;;;;;1.13;1.02;;;;;;;15.57;100.00;100281.44;10548419;28;20615;-90
2023/09/20 23:57:38;;;;;;;1.20;1.10;;;;;;;15.68;100.00;100284.75;10576142;28;20037;-89
